Ana Sayfa
METAR-TAF:

METAR-TAF

Havaalanları :

Erzincan, Türkiye

Erzincan Havalimanı

Enlem: 39-44N, Boylam: 039-30E, yükseklik: 1156 m

Güncel hava durumu gözlemi

Rapor saat 02:50 UTC de 41 dakika önce yapıldı.
Rüzgar değişken yönden 2 kt
Sıcaklık 0°C
Nem 93%
Basınç 1010 hPa
Görüş mesafesi 10 km veya daha fazla
4000 ft yükseklikte parçalı bulutlu
10000 ft yükseklikte parçalı çok bulutlu

METAR: LTCD 260250Z VRB02KT 9999 SCT040 BKN100 00/M01 Q1010 NOSIG

Saat: 06:31 (03:31 UTC)

Tahmin

Rapor saat 01:40 UTC de 1 saat ve 51 dakika önce yapıldı.
Ayın 26'si saat 03 UTC'den ayın 26'si saat 12 UTC'ye kadar geçerli Tahmin
Rüzgar değişken yönden 2 kt
Görüş mesafesi 10 km veya daha fazla
4000 ft yükseklikte parçalı bulutlu
10000 ft yükseklikte parçalı çok bulutlu

TAF: LTCD 260140Z 2603/2612 VRB02KT 9999 SCT040 BKN100

4.000'den fazla havaalanı için hava durumu gözlemleri ve tahminleri (METAR ve TAF raporları).

Kullanılabilir istasyonlar harita üzerinde sarı ve kırmızı noktalarla gösterilir.

İstasyonun adını görmek için fareyi noktanın üzerinde gezdirin.

Sonrasında hava gözlem ve tahminlerini görmek için tıklayın.

Haritayı değiştirmek için: yaklaştırmak için siyah artı işaretli yeşil düğmeye ve uzaklaştırmak için de eksi işaretli düğmeye hızla tıklayın; bitişik haritalar için yeşil okları kullanın.


METAR-TAF: